Currently 55°F in Wildomar, California, USA
55°F
71°F / 55°F
calm
0.02"
Friday, November 17, 2017 8:46 PM PST

Wildomar, California Weather Summary
Last 36 Hours

Temperature Winds Hourly Humidity Dewpoint
Time Report Norm Report Norm Max Gusts Precip. Rpt. Norm Rpt. Norm Pressure
1Fri 08:46 PM  55.5°F  53°F  calm  calm  none  0.00"  88%  66%  52°F  42°F  N/A
3Fri 08:44 PM  55.4°F  53°F  calm  calm  none  ----  88%  65%  52°F  42°F  N/A
Fri 08:00 PM  56.3°F  55°F  calm  calm  none  0.00"  87%  63%  52°F  42°F  N/A
Fri 07:00 PM  57.3°F  57°F  calm  1 mph  none  0.00"  82%  59%  52°F  42°F  N/A
Fri 06:00 PM  60.0°F  60°F  calm  1 mph  none  0.00"  75%  54%  52°F  42°F  N/A
Fri 05:00 PM  64.9°F  63°F  calm  1 mph  none  0.00"  66%  49%  53°F  43°F  N/A
Fri 04:00 PM  68.5°F  68°F  calm  2 mph  none  0.00"  55%  41%  51°F  43°F  N/A
2Fri 03:03 PM  71.0°F  72°F  calm  3 mph  none  ----  52%  36%  52°F  42°F  N/A
Fri 03:00 PM  70.7°F  72°F  calm  2 mph  none  0.00"  53%  35%  52°F  42°F  N/A
Fri 02:00 PM  69.5°F  73°F  calm  2 mph  none  0.00"  56%  34%  53°F  42°F  N/A
Fri 01:00 PM  68.8°F  72°F  calm  2 mph  none  0.00"  55%  34%  51°F  41°F  N/A
Fri 12:00 PM  68.1°F  70°F  calm  2 mph  none  0.00"  60%  37%  53°F  42°F  N/A
Fri 11:00 AM  64.9°F  68°F  calm  2 mph  none  0.00"  68%  41%  54°F  42°F  N/A
Fri 10:00 AM  61.1°F  64°F  calm  2 mph  none  0.01"  81%  49%  55°F  44°F  N/A
Fri 09:00 AM  59.1°F  59°F  calm  1 mph  none  0.00"  86%  59%  55°F  44°F  N/A
Fri 08:00 AM  58.4°F  51°F  calm  1 mph  none  0.00"  87%  75%  54°F  43°F  N/A
Fri 07:00 AM  57.5°F  46°F  calm  calm  none  0.00"  88%  79%  54°F  40°F  N/A
Fri 06:00 AM  57.6°F  46°F  calm  calm  none  0.00"  86%  78%  53°F  40°F  N/A
Fri 05:00 AM  58.6°F  47°F  calm  calm  none  0.01"  81%  78%  53°F  40°F  N/A
Fri 04:00 AM  59.8°F  47°F  calm  calm  none  0.00"  66%  76%  48°F  40°F  N/A
Fri 03:00 AM  59.1°F  48°F  calm  calm  none  0.00"  67%  75%  48°F  40°F  N/A
Fri 02:00 AM  58.6°F  49°F  calm  calm  none  0.00"  67%  73%  47°F  40°F  N/A
Fri 01:00 AM  59.2°F  49°F  calm  calm  none  0.00"  66%  72%  47°F  40°F  N/A
Fri 12:00 AM  59.8°F  50°F  calm  calm  none  0.00"  62%  70%  46°F  41°F  N/A
Thu 11:00 PM  60.9°F  51°F  calm  calm  none  0.00"  61%  69%  47°F  41°F  N/A
Thu 10:00 PM  63.9°F  52°F  calm  calm  none  0.00"  55%  67%  47°F  41°F  N/A
Thu 09:00 PM  65.2°F  53°F  calm  calm  none  0.00"  52%  64%  47°F  41°F  N/A
Thu 08:00 PM  66.0°F  55°F  calm  calm  none  0.00"  51%  60%  47°F  41°F  N/A
Thu 07:00 PM  67.8°F  57°F  calm  1 mph  none  0.00"  48%  56%  46°F  41°F  N/A
Thu 06:00 PM  70.0°F  60°F  calm  1 mph  none  0.00"  43%  52%  46°F  42°F  N/A
Thu 05:00 PM  72.3°F  64°F  calm  1 mph  none  0.00"  39%  46%  45°F  42°F  N/A
Thu 04:00 PM  76.4°F  69°F  calm  2 mph  none  0.00"  35%  39%  46°F  42°F  N/A
Thu 03:00 PM  78.9°F  73°F  calm  2 mph  none  0.00"  31%  34%  45°F  41°F  N/A
Thu 02:00 PM  80.0°F  73°F  calm  2 mph  none  0.00"  30%  32%  45°F  41°F  N/A
Thu 01:00 PM  80.0°F  73°F  calm  3 mph  none  0.00"  31%  33%  46°F  41°F  N/A
Thu 12:00 PM  77.0°F  71°F  calm  2 mph  none  0.00"  36%  36%  47°F  41°F  N/A
Thu 11:00 AM  73.0°F  68°F  calm  2 mph  none  0.00"  39%  39%  46°F  42°F  N/A
Thu 10:00 AM  69.1°F  64°F  calm  2 mph  none  0.00"  46%  48%  46°F  43°F  N/A
Thu 09:00 AM  62.5°F  59°F  calm  1 mph  none  0.00"  61%  58%  48°F  44°F  N/A

  1. Current weather data. No green row appears if the current weather data is also the high or low for the current day.
  2. High temperature for the current day.
  3. Low temperature for the current day.

The Wildomar, California weather pages are a service of WeatherCurrents. Wildomar is located southwestern Riverside County, California, north of Murrieta and south of Lake Elsinore.
Copyright ©Fri Nov 17 20:47:01 PST 2017  WeatherCurrents. All rights reserved. - Submit questions and comments - Privacy Policy

This page automatically refreshes every 10 minutes.